Arklow Rogue — EIGD — position and weather

sailwx.info

Track history (hours):
 
Tides and Currents Weather Stations Pressure Air Temp Water Temp Dewpoint Dewpoint Depression Visibility Wind Speed Wind Dir Waves Ship Positions

Arklow Rogue

Last reported at 2017-Oct-13 23:32 UTC. Time now 2017-Oct-17 19:10 UTC.
Position N 53°58' W 004°21'.

Length 90 m; draft 3.4 m.

Type: Cargo ship. MMSI: 250000960.

Date/timePositionNaut miles runAvg speedWind from/ knotsBaromVisibWave heightAir tempDewpointWater temp
2017-Oct-13 23:32N 53°58' W 004°21'210.3
2017-Oct-13 23:18N 53°56' W 004°24'9910.7
2017-Oct-13 14:02N 52°30' W 005°43'312.7
2017-Oct-13 13:47N 52°27' W 005°45'612.7
2017-Oct-13 13:19N 52°21' W 005°50'412.6
2017-Oct-13 13:00N 52°18' W 005°52'612.2
2017-Oct-13 12:30N 52°12' W 005°57'611.7
2017-Oct-13 12:00N 52°08' W 006°03'611.4
2017-Oct-13 11:30N 52°04' W 006°10'510.8
2017-Oct-13 11:00N 52°02' W 006°18'510.5
2017-Oct-13 10:30N 51°60' W 006°26'510.5
2017-Oct-13 09:59N 51°58' W 006°34'810.4
2017-Oct-13 09:11N 51°55' W 006°47'210.5
2017-Oct-13 09:00N 51°54' W 006°49'510.3
2017-Oct-13 08:31N 51°53' W 006°57'510.5
2017-Oct-13 08:01N 51°51' W 007°05'510.5
2017-Oct-13 07:31N 51°49' W 007°13'510.4
2017-Oct-13 07:01N 51°47' W 007°21'510.6
2017-Oct-13 06:31N 51°46' W 007°29'510.7
2017-Oct-13 06:01N 51°44' W 007°37'510.6
2017-Oct-13 05:31N 51°42' W 007°45'510.7
2017-Oct-13 05:01N 51°40' W 007°53'510.6
2017-Oct-13 04:30N 51°38' W 008°01'510.4
2017-Oct-13 04:01N 51°36' W 008°09'510.8
2017-Oct-13 03:30N 51°35' W 008°17'510.8
2017-Oct-13 03:01N 51°33' W 008°26'510.6
2017-Oct-13 02:31N 51°31' W 008°33'510.5
2017-Oct-13 02:01N 51°29' W 008°41'510.5
2017-Oct-13 01:31N 51°27' W 008°49'510.5
2017-Oct-13 01:01N 51°25' W 008°57'510.4
2017-Oct-13 00:31N 51°24' W 009°05'510.7
2017-Oct-13 00:01N 51°22' W 009°13'510.4
2017-Oct-12 23:31N 51°20' W 009°21'510.8
2017-Oct-12 23:01N 51°18' W 009°29'5 9.9
2017-Oct-12 22:31N 51°18' W 009°37'5 9.8
2017-Oct-12 22:01N 51°20' W 009°44'510.3
2017-Oct-12 21:31N 51°23' W 009°51'5 9.9
2017-Oct-12 21:01N 51°25' W 009°58'5 9.7
2017-Oct-12 20:30N 51°28' W 010°04'5 9.6
2017-Oct-12 20:00N 51°31' W 010°11'5 9.6
2017-Oct-12 19:30N 51°33' W 010°18'5 9.3
2017-Oct-12 19:00N 51°36' W 010°23'  
2017-Oct-06 03:21N 51°44' W 010°33'511.3
2017-Oct-06 02:57N 51°40' W 010°28'511.3
2017-Oct-06 02:30N 51°37' W 010°23'510.9
2017-Oct-06 02:00N 51°33' W 010°16'611.2
2017-Oct-06 01:31N 51°29' W 010°09'611.4
2017-Oct-06 01:00N 51°26' W 010°02'611.6
2017-Oct-06 00:30N 51°22' W 009°55'611.5
2017-Oct-06 00:01N 51°19' W 009°48'611.6
2017-Oct-05 23:29N 51°16' W 009°39'611.7
2017-Oct-05 23:00N 51°14' W 009°31'611.8
2017-Oct-05 22:30N 51°11' W 009°22'611.7
2017-Oct-05 22:00N 51°09' W 009°13'611.5
2017-Oct-05 21:30N 51°07' W 009°05'149 9.0
2017-Oct-05 04:57N 49°55' W 005°40'4 8.7
2017-Oct-05 04:30N 49°55' W 005°34'15 8.8
2017-Oct-05 02:46N 49°54' W 005°10'510.0
2017-Oct-05 02:19N 49°55' W 005°03'710.6
2017-Oct-05 01:37N 49°56' W 004°52'111.0
2017-Oct-05 01:30N 49°57' W 004°50'1111.2
2017-Oct-05 00:33N 49°59' W 004°34'111.6
2017-Oct-05 00:26N 49°59' W 004°32'511.7
2017-Oct-04 23:59N 50°00' W 004°24'812.0
2017-Oct-04 23:20N 50°02' W 004°12'412.3
2017-Oct-04 23:00N 50°02' W 004°05'612.1
2017-Oct-04 22:30N 50°04' W 003°56'611.9
2017-Oct-04 22:00N 50°05' W 003°47'611.6
2017-Oct-04 21:30N 50°06' W 003°38'611.3
2017-Oct-04 21:00N 50°07' W 003°30'510.8
2017-Oct-04 20:30N 50°08' W 003°21'510.2
2017-Oct-04 20:01N 50°09' W 003°14'5 9.9
2017-Oct-04 19:30N 50°10' W 003°06'5 9.6
2017-Oct-04 19:00N 50°11' W 002°58'5 9.3
2017-Oct-04 18:28N 50°12' W 002°51'6 9.2
2017-Oct-04 17:51N 50°13' W 002°42'3 9.3
2017-Oct-04 17:30N 50°13' W 002°37'7712.4
2017-Oct-04 11:17N 50°28' W 000°39'312.1
2017-Oct-04 11:00N 50°28' W 000°33'711.8
2017-Oct-04 10:25N 50°30' W 000°23'511.4
2017-Oct-04 10:01N 50°31' W 000°15'510.9
2017-Oct-04 09:30N 50°32' W 000°07'510.2
2017-Oct-04 09:00N 50°33' E 000°01'19 9.4
2017-Oct-04 07:00N 50°37' E 000°30'610.0
2017-Oct-04 06:25N 50°39' E 000°38'511.0
2017-Oct-04 06:00N 50°42' E 000°44'611.8
2017-Oct-04 05:30N 50°45' E 000°52'612.5
2017-Oct-04 05:00N 50°49' E 000°60'712.9
2017-Oct-04 04:27N 50°54' E 001°08'612.9
2017-Oct-04 04:00N 50°57' E 001°15'613.0
2017-Oct-04 03:30N 51°02' E 001°23'612.3
2017-Oct-04 03:01N 51°06' E 001°31'611.5
2017-Oct-04 02:31N 51°10' E 001°37'510.6
2017-Oct-04 02:01N 51°15' E 001°40'510.2
2017-Oct-04 01:31N 51°20' E 001°42'5 9.9
2017-Oct-04 01:01N 51°24' E 001°43'5 9.7
2017-Oct-04 00:31N 51°29' E 001°44'510.2
2017-Oct-04 00:00N 51°34' E 001°44'  
Track history (hours):
 
Tides and Currents Weather Stations Pressure Air Temp Water Temp Dewpoint Dewpoint Depression Visibility Wind Speed Wind Dir Waves Ship Positions

Arklow Rogue

Last reported at 2017-Oct-13 23:32 UTC. Time now 2017-Oct-17 19:10 UTC.
Position N 53°58' W 004°21'.

Length 90 m; draft 3.4 m.

Type: Cargo ship. MMSI: 250000960.

Date/timePositionNaut miles runAvg speedWind from/ knotsBaromVisibWave heightAir tempDewpointWater temp
2017-Oct-13 23:32N 53°58' W 004°21'210.3
2017-Oct-13 23:18N 53°56' W 004°24'9910.7
2017-Oct-13 14:02N 52°30' W 005°43'312.7
2017-Oct-13 13:47N 52°27' W 005°45'612.7
2017-Oct-13 13:19N 52°21' W 005°50'412.6
2017-Oct-13 13:00N 52°18' W 005°52'612.2
2017-Oct-13 12:30N 52°12' W 005°57'611.7
2017-Oct-13 12:00N 52°08' W 006°03'611.4
2017-Oct-13 11:30N 52°04' W 006°10'510.8
2017-Oct-13 11:00N 52°02' W 006°18'510.5
2017-Oct-13 10:30N 51°60' W 006°26'510.5
2017-Oct-13 09:59N 51°58' W 006°34'810.4
2017-Oct-13 09:11N 51°55' W 006°47'210.5
2017-Oct-13 09:00N 51°54' W 006°49'510.3
2017-Oct-13 08:31N 51°53' W 006°57'510.5
2017-Oct-13 08:01N 51°51' W 007°05'510.5
2017-Oct-13 07:31N 51°49' W 007°13'510.4
2017-Oct-13 07:01N 51°47' W 007°21'510.6
2017-Oct-13 06:31N 51°46' W 007°29'510.7
2017-Oct-13 06:01N 51°44' W 007°37'510.6
2017-Oct-13 05:31N 51°42' W 007°45'510.7
2017-Oct-13 05:01N 51°40' W 007°53'510.6
2017-Oct-13 04:30N 51°38' W 008°01'510.4
2017-Oct-13 04:01N 51°36' W 008°09'510.8
2017-Oct-13 03:30N 51°35' W 008°17'510.8
2017-Oct-13 03:01N 51°33' W 008°26'510.6
2017-Oct-13 02:31N 51°31' W 008°33'510.5
2017-Oct-13 02:01N 51°29' W 008°41'510.5
2017-Oct-13 01:31N 51°27' W 008°49'510.5
2017-Oct-13 01:01N 51°25' W 008°57'510.4
2017-Oct-13 00:31N 51°24' W 009°05'510.7
2017-Oct-13 00:01N 51°22' W 009°13'510.4
2017-Oct-12 23:31N 51°20' W 009°21'510.8
2017-Oct-12 23:01N 51°18' W 009°29'5 9.9
2017-Oct-12 22:31N 51°18' W 009°37'5 9.8
2017-Oct-12 22:01N 51°20' W 009°44'510.3
2017-Oct-12 21:31N 51°23' W 009°51'5 9.9
2017-Oct-12 21:01N 51°25' W 009°58'5 9.7
2017-Oct-12 20:30N 51°28' W 010°04'5 9.6
2017-Oct-12 20:00N 51°31' W 010°11'5 9.6
2017-Oct-12 19:30N 51°33' W 010°18'5 9.3
2017-Oct-12 19:00N 51°36' W 010°23'  
2017-Oct-06 03:21N 51°44' W 010°33'511.3
2017-Oct-06 02:57N 51°40' W 010°28'511.3
2017-Oct-06 02:30N 51°37' W 010°23'510.9
2017-Oct-06 02:00N 51°33' W 010°16'611.2
2017-Oct-06 01:31N 51°29' W 010°09'611.4
2017-Oct-06 01:00N 51°26' W 010°02'611.6
2017-Oct-06 00:30N 51°22' W 009°55'611.5
2017-Oct-06 00:01N 51°19' W 009°48'611.6
2017-Oct-05 23:29N 51°16' W 009°39'611.7
2017-Oct-05 23:00N 51°14' W 009°31'611.8
2017-Oct-05 22:30N 51°11' W 009°22'611.7
2017-Oct-05 22:00N 51°09' W 009°13'611.5
2017-Oct-05 21:30N 51°07' W 009°05'149 9.0
2017-Oct-05 04:57N 49°55' W 005°40'4 8.7
2017-Oct-05 04:30N 49°55' W 005°34'15 8.8
2017-Oct-05 02:46N 49°54' W 005°10'510.0
2017-Oct-05 02:19N 49°55' W 005°03'710.6
2017-Oct-05 01:37N 49°56' W 004°52'111.0
2017-Oct-05 01:30N 49°57' W 004°50'1111.2
2017-Oct-05 00:33N 49°59' W 004°34'111.6
2017-Oct-05 00:26N 49°59' W 004°32'511.7
2017-Oct-04 23:59N 50°00' W 004°24'812.0
2017-Oct-04 23:20N 50°02' W 004°12'412.3
2017-Oct-04 23:00N 50°02' W 004°05'612.1
2017-Oct-04 22:30N 50°04' W 003°56'611.9
2017-Oct-04 22:00N 50°05' W 003°47'611.6
2017-Oct-04 21:30N 50°06' W 003°38'611.3
2017-Oct-04 21:00N 50°07' W 003°30'510.8
2017-Oct-04 20:30N 50°08' W 003°21'510.2
2017-Oct-04 20:01N 50°09' W 003°14'5 9.9
2017-Oct-04 19:30N 50°10' W 003°06'5 9.6
2017-Oct-04 19:00N 50°11' W 002°58'5 9.3
2017-Oct-04 18:28N 50°12' W 002°51'6 9.2
2017-Oct-04 17:51N 50°13' W 002°42'3 9.3
2017-Oct-04 17:30N 50°13' W 002°37'7712.4
2017-Oct-04 11:17N 50°28' W 000°39'312.1
2017-Oct-04 11:00N 50°28' W 000°33'711.8
2017-Oct-04 10:25N 50°30' W 000°23'511.4
2017-Oct-04 10:01N 50°31' W 000°15'510.9
2017-Oct-04 09:30N 50°32' W 000°07'510.2
2017-Oct-04 09:00N 50°33' E 000°01'19 9.4
2017-Oct-04 07:00N 50°37' E 000°30'610.0
2017-Oct-04 06:25N 50°39' E 000°38'511.0
2017-Oct-04 06:00N 50°42' E 000°44'611.8
2017-Oct-04 05:30N 50°45' E 000°52'612.5
2017-Oct-04 05:00N 50°49' E 000°60'712.9
2017-Oct-04 04:27N 50°54' E 001°08'612.9
2017-Oct-04 04:00N 50°57' E 001°15'613.0
2017-Oct-04 03:30N 51°02' E 001°23'612.3
2017-Oct-04 03:01N 51°06' E 001°31'611.5
2017-Oct-04 02:31N 51°10' E 001°37'510.6
2017-Oct-04 02:01N 51°15' E 001°40'510.2
2017-Oct-04 01:31N 51°20' E 001°42'5 9.9
2017-Oct-04 01:01N 51°24' E 001°43'5 9.7
2017-Oct-04 00:31N 51°29' E 001°44'510.2
2017-Oct-04 00:00N 51°34' E 001°44'  

Dump ship's entire track history